Date,TemperatureHighF,TemperatureAvgF,TemperatureLowF,DewpointHighF,DewpointAvgF,DewpointLowF,HumidityHigh,HumidityAvg,HumidityLow,PressureMaxIn,PressureMinIn,WindSpeedMaxMPH,WindSpeedAvgMPH,GustSpeedMaxMPH,PrecipitationSumIn
2013-1-1,72.5,64.0,56.7,67.0,60.6,53.8,91,89,82,30.07,29.92,0,0,0,0.04
2013-1-2,56.7,51.5,45.0,53.8,47.7,42.3,91,87,82,30.18,29.99,0,0,0,0.08
2013-1-3,49.9,43.1,36.9,42.5,38.5,32.1,92,84,63,30.36,30.17,0,0,0,0.27
2013-1-4,61.0,46.1,35.9,41.0,34.4,30.8,83,66,35,30.42,30.31,0,0,0,0.00
2013-1-5,54.4,48.6,42.6,41.4,37.9,34.1,75,67,54,30.35,30.22,0,0,0,0.00
2013-1-6,51.7,49.2,44.5,48.7,44.3,40.4,90,84,66,30.27,30.16,0,0,0,0.07
2013-1-7,61.8,50.0,38.5,46.9,41.4,35.9,91,74,47,30.31,30.17,0,0,0,0.00
2013-1-8,63.0,58.0,50.5,59.1,53.2,43.2,88,84,71,30.22,30.12,0,0,0,0.00
2013-1-9,65.2,63.7,61.8,62.5,60.4,57.4,91,89,84,30.22,30.14,0,0,0,0.00
2013-1-10,71.0,65.5,62.0,67.3,62.5,59.3,91,90,88,30.21,29.97,0,0,0,0.29
2013-1-11,74.8,67.4,61.9,69.8,64.2,58.9,91,89,83,30.13,30.04,0,0,0,0.00
2013-1-12,73.7,68.5,66.2,71.9,67.4,63.8,100,96,91,30.09,29.95,0,0,0,0.02
2013-1-13,73.1,68.6,61.5,72.2,68.2,61.2,100,99,96,30.01,29.92,0,0,0,0.01
2013-1-14,67.9,56.5,46.1,67.6,56.2,46.1,100,99,96,30.09,30.00,0,0,0,0.01
2013-1-15,68.9,56.9,45.5,68.5,56.7,45.5,100,99,97,30.05,29.92,0,0,0,0.26
2013-1-16,59.0,49.6,42.3,59.0,49.3,42.3,100,99,95,30.07,29.92,0,0,0,0.00
2013-1-17,54.5,45.2,38.4,44.6,40.4,36.3,100,84,62,30.35,30.05,0,0,0,0.00
2013-1-18,61.2,47.3,37.7,47.7,41.5,36.9,98,82,51,30.50,30.35,0,0,0,0.00
2013-1-19,64.9,50.8,39.8,53.8,46.6,38.8,99,87,64,30.38,30.23,0,0,0,0.00
2013-1-20,66.8,52.2,41.1,58.0,49.4,40.8,99,91,66,30.26,30.13,0,0,0,0.00
2013-1-21,69.7,54.6,44.0,53.3,48.2,43.7,99,81,50,30.21,30.11,0,0,0,0.00
2013-1-22,61.7,48.7,41.0,46.1,41.4,36.8,98,77,49,30.36,30.19,0,0,0,0.00
2013-1-23,65.3,53.4,39.4,59.8,50.5,38.9,99,90,74,30.40,30.29,0,0,0,0.00
2013-1-24,68.6,58.8,47.2,62.9,56.6,46.9,100,93,78,30.34,30.22,0,0,0,0.00
2013-1-25,71.0,64.7,55.5,65.1,61.4,54.9,98,90,79,30.28,30.14,0,0,0,0.00
2013-1-26,71.6,61.9,53.7,67.9,60.5,53.4,100,96,86,30.25,30.17,0,0,0,0.00
2013-1-27,70.9,62.9,55.8,67.5,61.8,55.5,99,96,88,30.30,30.23,0,0,0,0.00
2013-1-28,73.1,66.7,58.9,69.9,65.3,58.4,99,95,87,30.26,30.13,0,0,0,0.01
2013-1-29,75.0,68.9,66.3,72.5,68.1,65.7,99,97,92,30.13,29.86,0,0,0,0.07
2013-1-30,71.5,61.0,44.7,70.8,58.2,38.1,99,91,69,30.12,29.70,0,0,0,0.46
2013-1-31,63.2,50.5,37.2,48.3,40.7,35.8,95,71,39,30.31,30.12,0,0,0,0.00
2013-2-1,66.2,52.4,43.6,48.8,42.9,37.2,88,71,46,30.39,30.29,0,0,0,0.00
2013-2-2,63.6,51.0,36.0,56.8,45.5,32.8,98,82,58,30.35,30.18,0,0,0,0.00
2013-2-3,64.0,56.5,46.1,57.4,51.8,45.6,99,86,62,30.26,30.11,0,0,0,0.00
2013-2-4,66.0,55.5,44.6,59.3,50.9,42.0,98,85,57,30.11,29.97,0,0,0,0.10
2013-2-5,68.3,60.6,54.9,65.9,59.5,54.3,99,96,91,30.03,29.93,0,0,0,0.40
2013-2-6,66.2,60.1,53.4,63.6,59.0,52.8,100,96,90,30.14,29.99,0,0,0,0.00
2013-2-7,75.9,64.5,55.2,69.1,62.1,54.6,99,93,74,29.99,29.77,0,0,0,2.37
2013-2-8,69.5,59.8,52.4,66.4,58.6,52.1,100,96,89,30.15,29.94,0,0,0,0.00
2013-2-9,63.9,57.0,48.8,61.2,55.2,47.7,97,93,84,30.24,30.09,0,0,0,0.00
2013-2-10,69.2,66.0,62.0,67.9,64.8,60.6,98,96,92,30.09,29.96,0,0,0,0.00
2013-2-11,67.7,62.0,57.7,67.7,61.7,57.4,100,99,98,30.10,29.98,0,0,0,0.60
2013-2-12,68.1,62.1,57.3,67.8,61.8,57.0,99,99,99,30.03,29.75,0,0,0,0.52
2013-2-13,65.7,53.6,45.0,65.4,52.9,44.5,99,98,91,30.06,29.77,0,0,0,0.23
2013-2-14,57.7,47.4,41.6,51.2,45.2,41.3,99,93,71,30.16,30.04,0,0,0,0.00
2013-2-15,63.6,51.9,40.4,53.5,46.7,40.1,100,84,54,30.17,30.05,0,0,0,0.01
2013-2-16,56.6,48.9,35.5,46.0,35.8,26.6,89,63,36,30.29,30.08,0,0,0,0.00
2013-2-17,54.6,44.9,31.1,45.4,35.9,28.8,92,72,51,30.39,30.26,0,0,0,0.00
2013-2-18,65.6,60.0,53.0,61.1,53.5,45.5,93,80,67,30.26,30.00,0,0,0,0.00
2013-2-19,68.3,60.4,45.8,61.9,52.6,38.0,98,78,40,30.20,29.97,0,0,0,0.76
2013-2-20,57.1,48.4,41.9,43.2,36.9,30.7,93,66,43,30.26,30.04,0,0,0,0.00
2013-2-21,65.2,58.6,46.3,64.3,55.4,42.0,98,89,79,30.05,29.85,0,0,0,0.00
2013-2-22,68.5,65.0,61.1,66.6,63.9,60.5,98,96,89,29.96,29.85,0,0,0,0.13
2013-2-23,61.2,58.3,56.1,60.6,58.0,55.5,99,99,98,29.94,29.74,0,0,0,1.22
2013-2-24,66.7,59.5,49.7,61.6,57.1,49.4,99,92,78,29.98,29.79,0,0,0,0.43
2013-2-25,66.7,62.5,60.3,66.1,61.8,59.7,98,97,94,29.83,29.50,0,0,0,2.82
2013-2-26,62.3,56.0,50.4,61.7,50.0,43.8,98,80,72,29.92,29.53,0,0,0,0.00
2013-2-27,63.5,55.8,46.6,56.1,50.6,45.8,98,84,59,30.03,29.91,0,0,0,0.00
2013-2-28,60.7,52.8,44.3,53.3,43.0,36.4,94,71,46,30.10,29.97,0,0,0,0.00
2013-3-1,60.0,49.5,40.8,49.4,41.5,35.7,93,75,50,30.15,29.99,0,0,0,0.00
2013-3-2,53.6,42.8,33.7,38.5,33.8,30.3,94,71,54,30.22,30.09,0,0,0,0.00
2013-3-3,55.7,43.4,31.6,42.5,34.5,28.2,94,72,42,30.25,30.13,0,0,0,0.00
2013-3-4,66.5,54.5,38.4,60.8,50.9,37.6,98,88,71,30.16,29.97,0,0,0,0.00
2013-3-5,69.5,62.3,49.9,65.7,58.5,44.9,96,88,64,30.15,29.94,0,0,0,0.00
2013-3-6,63.7,51.4,41.5,44.9,38.9,36.0,95,65,39,30.28,30.15,0,0,0,0.00
2013-3-7,58.6,48.3,38.7,48.3,42.3,35.7,97,81,56,30.34,30.22,0,0,0,0.00
2013-3-8,67.4,53.6,39.5,53.9,47.3,39.0,98,81,49,30.30,30.18,0,0,0,0.00
2013-3-9,68.7,58.9,47.6,61.8,55.8,46.8,98,90,70,30.20,30.01,0,0,0,0.00
2013-3-10,73.2,66.7,62.6,68.4,64.4,61.4,96,92,84,30.03,29.89,0,0,0,0.00
2013-3-11,66.8,58.0,45.8,65.7,55.6,45.0,98,92,71,29.99,29.84,0,0,0,0.15
2013-3-12,69.3,54.0,41.5,48.1,44.6,39.6,98,74,42,30.18,29.98,0,0,0,0.00
2013-3-13,69.4,56.2,44.2,48.5,41.1,33.7,93,62,29,30.36,30.18,0,0,0,0.01
2013-3-14,63.1,52.3,40.7,51.4,38.9,32.1,93,62,33,30.44,30.29,0,0,0,0.00
2013-3-15,69.1,58.9,44.7,58.2,53.0,44.2,98,82,57,30.31,30.14,0,0,0,0.00
2013-3-16,73.4,65.1,52.8,66.1,61.1,52.0,98,87,73,30.14,29.98,0,0,0,0.00
2013-3-17,72.5,64.8,58.3,68.2,63.0,57.7,98,94,79,30.00,29.88,0,0,0,0.00
2013-3-18,76.9,69.6,64.4,73.4,68.0,63.2,98,95,89,29.90,29.78,0,0,0,0.00
2013-3-19,76.9,66.1,58.1,68.2,61.0,56.0,98,85,58,30.02,29.85,0,0,0,0.01
2013-3-20,70.3,58.7,46.7,58.4,46.4,40.1,95,65,40,30.10,29.95,0,0,0,0.01
2013-3-21,66.2,54.2,43.3,48.4,42.9,37.1,82,66,42,30.07,29.89,0,0,0,0.00
2013-3-22,66.6,62.6,54.9,62.2,56.7,44.8,93,81,60,29.90,29.82,0,0,0,0.00
2013-3-23,75.1,67.7,63.2,72.0,65.8,60.5,97,94,90,29.86,29.58,0,0,0,0.00
2013-3-24,77.9,67.4,50.0,69.2,60.1,38.7,98,79,49,29.94,29.56,0,0,0,0.00
2013-3-25,64.4,50.7,39.3,39.7,34.5,29.3,86,57,29,30.22,29.94,0,0,0,0.01
2013-3-26,60.7,48.2,37.2,36.8,33.4,31.1,79,58,36,30.36,30.22,0,0,0,0.00
2013-3-27,58.2,47.1,33.6,44.3,38.5,31.8,94,74,49,30.44,30.29,0,0,0,0.00
2013-3-28,65.6,53.6,39.5,51.1,45.4,38.8,98,76,49,30.35,30.25,0,0,0,0.00
2013-3-29,68.7,57.7,44.0,60.1,53.0,43.3,98,86,55,30.33,30.20,0,0,0,0.00
2013-3-30,74.0,64.3,53.7,66.9,61.2,53.1,99,90,75,30.20,30.03,0,0,0,0.00
2013-3-31,76.6,67.4,60.9,71.8,65.6,60.1,98,94,84,30.06,29.88,0,0,0,0.31
2013-4-1,78.5,65.5,56.9,67.0,61.7,56.3,99,89,60,30.06,29.91,0,0,0,0.00
2013-4-2,76.9,66.0,53.7,65.3,59.9,53.3,99,82,53,30.11,29.99,0,0,0,0.00
2013-4-3,69.5,61.7,56.4,66.3,60.4,55.3,98,96,87,30.05,29.75,0,0,0,1.09
2013-4-4,69.3,59.9,54.0,65.0,58.0,53.2,98,94,83,29.96,29.86,0,0,0,0.00
2013-4-5,72.0,57.2,50.4,58.9,52.7,49.0,96,86,58,30.11,29.95,0,0,0,0.00
2013-4-6,70.8,59.8,46.0,61.8,54.5,45.5,99,84,63,30.16,30.08,0,0,0,0.00
2013-4-7,75.0,66.0,55.0,67.1,62.3,54.2,97,88,73,30.13,30.01,0,0,0,0.00
2013-4-8,77.5,70.8,62.5,72.3,68.2,61.6,98,92,82,30.06,29.96,0,0,0,0.00
2013-4-9,78.1,73.2,69.5,74.8,71.2,68.6,97,94,87,30.07,29.95,0,0,0,0.00
2013-4-10,79.5,73.5,69.4,75.1,71.5,68.5,97,94,86,30.01,29.87,0,0,0,0.00
2013-4-11,78.0,70.9,59.4,75.9,69.9,58.5,98,97,93,29.86,29.59,0,0,0,1.22
2013-4-12,76.7,63.0,53.0,61.1,56.5,51.9,98,82,49,29.97,29.79,0,0,0,0.00
2013-4-13,76.2,64.7,51.6,62.9,57.3,50.5,97,78,53,30.04,29.88,0,0,0,0.00
2013-4-14,69.8,64.9,58.2,67.4,63.3,57.4,98,95,82,29.91,29.74,0,0,0,0.72
2013-4-15,77.1,71.2,67.5,74.6,70.0,66.8,98,96,91,30.01,29.80,0,0,0,0.03
2013-4-16,79.6,73.6,70.9,76.2,72.1,70.0,98,95,87,30.11,29.99,0,0,0,0.00
2013-4-17,79.5,74.2,71.3,76.3,72.3,70.1,97,94,89,30.11,29.98,0,0,0,0.00
2013-4-18,79.1,74.1,70.4,75.9,72.3,68.7,97,94,89,29.99,29.85,0,0,0,0.00
2013-4-19,74.8,57.1,46.0,73.9,56.4,45.5,99,97,93,30.17,29.80,0,0,0,0.40
2013-4-20,69.2,56.0,42.2,51.8,47.2,41.9,99,75,47,30.25,30.10,0,0,0,0.00
2013-4-21,70.9,60.2,48.0,60.1,53.1,46.3,96,79,52,30.20,30.10,0,0,0,0.00
2013-4-22,74.2,64.8,53.8,69.1,61.9,52.7,97,90,82,30.12,30.03,0,0,0,0.00
2013-4-23,75.3,70.2,66.8,70.6,67.5,64.9,95,91,84,30.10,30.02,0,0,0,0.00
2013-4-24,71.7,69.6,68.0,70.2,68.5,67.1,98,96,95,30.13,29.97,0,0,0,0.13
2013-4-25,78.0,65.0,55.7,69.8,61.1,55.1,98,88,70,30.27,30.12,0,0,0,0.01
2013-4-26,76.2,66.0,54.6,66.6,59.0,51.9,94,79,52,30.28,30.20,0,0,0,0.00
2013-4-27,78.4,70.9,63.5,72.9,68.3,62.6,98,92,79,30.20,30.04,0,0,0,0.00
2013-4-28,76.2,72.3,68.6,74.2,70.6,67.1,98,95,86,30.06,29.94,0,0,0,0.01
2013-4-29,81.0,72.6,66.0,75.0,69.6,65.1,97,91,76,29.97,29.88,0,0,0,0.02
2013-4-30,77.0,72.1,67.0,74.1,70.4,66.1,98,94,87,29.94,29.86,0,0,0,0.04
2013-5-1,76.7,70.9,62.6,74.2,69.5,62.0,98,96,92,29.93,29.83,0,0,0,3.81
2013-5-2,72.0,67.7,64.4,69.7,66.5,63.5,98,96,92,29.95,29.84,0,0,0,0.16
2013-5-3,72.1,65.2,50.2,68.9,63.5,49.4,98,95,88,29.95,29.81,0,0,0,0.32
2013-5-4,71.3,57.7,46.2,55.8,49.1,44.9,97,76,45,29.97,29.86,0,0,0,0.01
2013-5-5,69.5,63.8,52.0,61.7,54.1,48.1,90,72,53,30.00,29.84,0,0,0,0.00
2013-5-6,71.8,61.8,48.4,62.3,55.4,47.0,96,80,64,30.01,29.91,0,0,0,0.00
2013-5-7,75.7,66.2,54.4,67.3,62.0,53.6,98,87,67,30.04,29.95,0,0,0,0.00
2013-5-8,79.1,70.8,62.7,73.0,67.5,62.1,98,90,74,30.11,29.99,0,0,0,0.00
2013-5-9,79.0,72.3,64.4,73.7,69.0,63.5,98,90,76,30.14,30.04,0,0,0,0.00
2013-5-10,72.2,70.2,66.0,70.5,68.7,65.1,98,95,89,30.13,29.86,0,0,0,0.59
2013-5-11,74.0,68.3,63.7,71.8,67.2,63.1,99,96,90,30.06,29.93,0,0,0,0.05
2013-5-12,78.7,70.7,62.8,68.3,64.6,60.9,99,82,59,30.11,29.99,0,0,0,0.00
2013-5-13,76.9,65.3,53.6,61.2,56.6,50.0,95,76,45,30.27,30.11,0,0,0,0.00
2013-5-14,79.3,68.6,55.1,67.1,61.8,54.4,98,81,51,30.28,30.16,0,0,0,0.00
2013-5-15,80.4,72.5,62.1,70.2,65.4,58.8,97,80,52,30.21,30.03,0,0,0,0.00
2013-5-16,79.7,74.8,71.5,75.4,71.9,67.6,94,91,85,30.05,29.96,0,0,0,0.00
2013-5-17,82.2,76.1,72.7,78.3,74.1,71.1,96,93,87,30.06,29.96,0,0,0,0.00
2013-5-18,83.6,77.9,74.5,78.9,75.5,73.3,97,92,85,30.08,30.00,0,0,0,0.00
2013-5-19,81.4,77.3,74.6,78.2,75.4,73.2,96,94,90,30.03,29.98,0,0,0,0.00
2013-5-20,85.2,78.4,74.6,80.2,75.7,73.1,96,92,84,30.03,29.95,0,0,0,0.00
2013-5-21,83.6,78.5,75.1,78.8,75.5,73.5,95,91,84,29.99,29.87,0,0,0,0.00
2013-5-22,81.4,75.5,68.7,76.9,72.5,67.5,97,91,75,30.05,29.89,0,0,0,0.10
2013-5-23,87.4,77.9,68.7,79.7,74.2,67.8,98,89,75,30.04,29.93,0,0,0,0.00
2013-5-24,90.1,81.2,70.4,76.9,72.7,63.5,97,76,60,30.14,30.01,0,0,0,0.00
2013-5-25,82.9,73.3,62.4,70.3,63.8,57.8,92,73,52,30.22,30.12,0,0,0,0.00
2013-5-26,83.9,75.0,64.1,74.7,68.8,61.2,97,83,50,30.19,30.11,0,0,0,0.00
2013-5-27,83.3,78.8,75.1,75.3,72.1,68.4,92,80,64,30.15,30.06,0,0,0,0.00
2013-5-28,82.8,77.4,71.0,76.9,72.2,66.1,92,84,76,30.08,30.02,0,0,0,0.00
2013-5-29,82.9,79.3,76.0,78.6,76.0,73.7,94,90,84,30.04,29.98,0,0,0,0.00
2013-5-30,82.9,79.0,76.9,77.9,75.9,74.3,93,90,84,30.05,29.97,0,0,0,0.00
2013-5-31,82.9,79.3,76.9,79.2,76.6,74.7,94,91,87,30.04,29.96,0,0,0,0.00
2013-6-1,84.4,79.9,77.2,80.8,77.6,75.0,95,93,88,30.00,29.93,0,0,0,0.00
2013-6-2,85.4,79.1,70.6,79.9,76.0,69.7,97,91,69,29.98,29.85,0,0,0,0.30
2013-6-3,87.7,80.0,72.2,81.1,76.8,71.3,98,90,79,29.91,29.83,0,0,0,0.01
2013-6-4,86.3,80.8,74.9,81.1,77.6,73.7,97,90,81,29.93,29.87,0,0,0,0.00
2013-6-5,85.7,80.8,71.3,80.6,77.4,69.7,95,90,80,29.92,29.83,0,0,0,0.02
2013-6-6,91.1,76.2,67.5,78.8,72.0,66.6,97,88,64,29.85,29.72,0,0,0,0.32
2013-6-7,85.3,76.7,69.4,79.3,73.6,68.5,98,91,79,29.88,29.75,0,0,0,0.00
2013-6-8,87.1,78.2,69.2,80.9,75.3,68.1,98,91,79,30.03,29.86,0,0,0,1.43
2013-6-9,79.3,76.0,69.7,77.1,74.3,68.8,97,95,91,30.01,29.92,0,0,0,0.75
2013-6-10,82.1,78.7,72.4,79.3,76.9,71.5,98,94,87,30.04,29.94,0,0,0,1.02
2013-6-11,88.4,82.7,78.1,83.7,79.7,77.0,97,91,80,30.08,30.00,0,0,0,0.00
2013-6-12,89.7,83.3,76.1,84.4,79.5,75.2,98,89,80,30.08,29.99,0,0,0,0.00
2013-6-13,91.0,84.2,78.0,84.6,79.7,76.4,95,87,72,30.03,29.86,0,0,0,0.00
2013-6-14,93.3,83.6,76.7,84.2,78.9,72.5,97,86,61,29.93,29.84,0,0,0,0.14
2013-6-15,89.0,81.1,71.0,83.5,76.8,69.2,94,87,74,30.00,29.91,0,0,0,0.00
2013-6-16,90.3,84.3,77.0,84.0,80.4,75.5,96,88,78,30.03,29.96,0,0,0,0.00
2013-6-17,90.3,84.6,79.4,83.7,80.1,77.1,93,86,77,30.01,29.93,0,0,0,0.00
2013-6-18,90.0,84.5,79.1,82.1,79.3,75.9,92,85,72,30.00,29.88,0,0,0,0.01
2013-6-19,87.2,80.4,72.5,80.8,77.1,71.6,98,90,76,30.01,29.92,0,0,0,0.06
2013-6-20,88.6,77.2,71.1,82.5,75.2,69.9,98,94,76,30.08,29.99,0,0,0,0.85
2013-6-21,87.2,78.1,71.0,81.5,75.8,70.4,99,93,82,30.11,30.03,0,0,0,0.00
2013-6-22,87.3,80.1,73.1,80.4,76.5,72.2,97,89,74,30.09,29.98,0,0,0,0.00
2013-6-23,87.8,80.6,75.1,81.6,77.6,73.9,97,91,80,30.07,30.00,0,0,0,0.02
2013-6-24,87.0,81.0,73.3,82.7,77.8,71.9,98,90,82,30.15,30.05,0,0,0,0.05
2013-6-25,88.8,82.9,78.0,82.1,78.7,75.9,95,87,79,30.11,30.01,0,0,0,0.00
2013-6-26,88.0,83.7,80.8,83.2,79.8,77.6,94,88,84,30.06,29.96,0,0,0,0.00
2013-6-27,91.6,85.6,80.2,84.7,81.4,78.3,95,88,79,30.01,29.90,0,0,0,0.01
2013-6-28,92.4,87.0,82.9,85.8,82.6,80.7,94,87,76,29.92,29.75,0,0,0,0.00
2013-6-29,89.8,83.6,76.2,82.8,79.0,73.7,93,86,78,29.79,29.67,0,0,0,0.00
2013-6-30,91.3,82.1,73.9,79.2,74.8,71.8,96,80,56,29.76,29.68,0,0,0,0.00
2013-7-1,88.9,80.1,71.9,77.7,73.2,69.8,93,80,64,29.89,29.76,0,0,0,0.00
2013-7-2,89.5,79.8,71.3,77.2,73.4,69.2,94,82,65,29.98,29.87,0,0,0,0.00
2013-7-3,85.5,78.0,73.4,80.3,75.6,72.2,97,93,78,30.01,29.92,0,0,0,0.32
2013-7-4,85.2,78.8,71.9,81.1,76.5,71.3,98,93,85,29.98,29.90,0,0,0,1.14
2013-7-5,81.3,76.8,73.8,78.3,75.1,72.1,97,94,90,30.08,29.95,0,0,0,0.69
2013-7-6,78.3,76.0,73.0,76.3,74.5,71.6,98,95,91,30.04,29.95,0,0,0,0.41
2013-7-7,81.2,77.5,74.0,79.2,76.2,72.9,98,96,91,30.11,29.99,0,0,0,1.03
2013-7-8,81.2,76.7,73.6,80.0,75.8,72.7,98,97,94,30.16,30.06,0,0,0,0.40
2013-7-9,86.8,79.7,72.0,81.7,77.2,71.4,99,92,81,30.18,30.08,0,0,0,0.00
2013-7-10,89.0,81.4,76.2,83.7,79.2,75.3,97,93,81,30.10,29.96,0,0,0,0.01
2013-7-11,81.4,76.9,72.4,80.0,76.1,71.8,98,97,94,30.01,29.86,0,0,0,2.02
2013-7-12,87.2,77.7,71.9,82.4,75.7,71.3,99,94,79,29.91,29.83,0,0,0,0.00
2013-7-13,86.9,78.2,71.3,84.0,76.4,71.0,99,94,83,29.95,29.85,0,0,0,0.00
2013-7-14,86.7,80.0,73.4,80.8,76.5,72.8,98,89,73,30.01,29.89,0,0,0,0.00
2013-7-15,85.3,81.1,77.0,81.0,77.8,75.5,96,90,82,30.10,30.00,0,0,0,0.02
2013-7-16,84.9,80.2,75.1,81.2,77.9,74.2,98,93,83,30.17,30.05,0,0,0,0.12
2013-7-17,88.3,80.7,73.8,81.7,77.4,73.5,99,90,78,30.19,30.09,0,0,0,0.00
2013-7-18,88.5,81.0,73.6,82.3,78.1,73.3,99,91,79,30.13,29.99,0,0,0,0.00
2013-7-19,85.9,80.5,75.4,80.8,77.8,74.8,98,91,82,30.06,29.94,0,0,0,0.01
2013-7-20,88.5,81.4,75.8,83.7,78.8,75.3,99,92,82,29.99,29.91,0,0,0,0.00
2013-7-21,83.0,79.0,75.2,79.8,77.1,74.5,99,94,86,30.03,29.97,0,0,0,0.12
2013-7-22,85.4,79.5,73.1,83.5,78.4,72.7,99,97,89,30.06,29.99,0,0,0,0.43
2013-7-23,89.7,84.1,79.9,85.2,81.8,79.3,99,93,83,30.04,29.90,0,0,0,0.00
2013-7-24,90.0,83.9,79.8,84.5,80.8,77.6,97,91,79,29.95,29.86,0,0,0,0.00
2013-7-25,89.4,81.0,73.8,83.7,77.8,73.5,99,90,75,30.00,29.86,0,0,0,0.04
2013-7-26,90.8,82.4,73.8,84.1,78.7,73.5,99,89,76,30.04,29.95,0,0,0,0.00
2013-7-27,84.1,79.6,73.9,81.4,77.8,73.3,99,94,84,29.97,29.87,0,0,0,1.30
2013-7-28,88.5,80.1,72.7,82.7,78.1,72.4,99,94,79,29.99,29.82,0,0,0,0.96
2013-7-29,90.0,82.4,76.1,84.3,80.1,75.8,99,93,79,30.10,29.96,0,0,0,0.33
2013-7-30,90.3,84.2,77.9,84.9,81.1,77.3,98,90,81,30.13,30.04,0,0,0,0.00
2013-7-31,90.5,84.1,78.7,84.2,81.0,77.6,98,91,78,30.09,29.96,0,0,0,0.00
2013-8-1,92.3,81.1,74.2,85.2,78.9,73.6,99,93,75,29.99,29.90,0,0,0,1.30
2013-8-2,89.2,81.0,73.1,84.1,78.8,72.8,99,93,82,30.01,29.90,0,0,0,0.00
2013-8-3,92.2,84.6,77.5,85.2,81.1,77.1,99,90,75,30.05,29.96,0,0,0,0.00
2013-8-4,94.2,85.4,79.0,86.7,81.3,78.4,98,88,69,30.07,29.95,0,0,0,0.00
2013-8-5,91.4,81.8,75.4,86.2,79.3,75.1,99,93,79,30.03,29.93,0,0,0,0.03
2013-8-6,92.8,83.5,75.3,86.5,80.1,75.0,99,90,78,29.98,29.89,0,0,0,0.00
2013-8-7,92.5,82.7,76.7,87.0,80.8,76.1,98,94,80,29.97,29.89,0,0,0,0.36
2013-8-8,89.8,83.5,78.2,84.0,80.7,77.4,98,91,81,29.97,29.89,0,0,0,0.00
2013-8-9,89.1,84.2,77.8,83.9,80.9,76.9,98,90,78,30.02,29.91,0,0,0,0.17
2013-8-10,90.4,84.7,80.8,83.2,79.9,78.2,95,86,75,30.07,29.99,0,0,0,0.00
2013-8-11,90.7,84.4,77.4,84.0,80.4,76.5,98,88,77,30.11,30.05,0,0,0,0.03
2013-8-12,89.8,82.7,76.1,84.9,80.6,75.5,98,94,83,30.10,30.00,0,0,0,1.80
2013-8-13,89.7,79.9,74.3,85.4,78.5,73.7,98,96,85,30.03,29.93,0,0,0,1.86
2013-8-14,80.5,76.4,73.9,78.6,75.4,73.3,99,97,91,29.97,29.89,0,0,0,0.01
2013-8-15,87.8,79.0,72.9,81.1,76.9,72.6,100,94,77,29.97,29.89,0,0,0,0.00
2013-8-16,86.4,79.3,73.1,81.0,77.2,72.5,99,94,82,29.99,29.90,0,0,0,0.53
2013-8-17,77.3,74.6,73.0,75.8,74.1,72.7,99,98,93,29.98,29.89,0,0,0,0.46
2013-8-18,81.6,76.0,71.8,80.7,75.5,71.5,99,98,96,30.00,29.91,0,0,0,3.95
2013-8-19,87.5,80.7,75.0,84.2,78.9,74.7,99,94,83,30.04,29.96,0,0,0,0.00
2013-8-20,86.4,79.8,73.9,83.0,78.1,73.6,99,94,86,30.06,29.97,0,0,0,0.00
2013-8-21,88.1,81.8,76.1,83.0,79.2,75.8,99,92,78,30.12,30.02,0,0,0,0.00
2013-8-22,85.0,78.6,74.4,81.2,77.3,74.1,99,96,88,30.08,30.03,0,0,0,0.00
2013-8-23,80.5,78.3,75.3,78.6,76.9,75.0,99,96,91,30.01,29.92,0,0,0,0.05
2013-8-24,79.2,75.6,72.8,77.0,75.2,72.5,99,99,92,30.13,29.96,0,0,0,0.65
2013-8-25,83.3,77.7,72.7,79.7,76.4,72.4,99,96,86,30.17,30.07,0,0,0,0.19
2013-8-26,86.0,79.1,73.5,76.9,74.6,71.1,99,87,65,30.19,30.08,0,0,0,0.01
2013-8-27,86.8,76.9,68.3,77.1,72.3,67.9,99,87,68,30.11,30.02,0,0,0,0.00
2013-8-28,86.9,77.3,68.0,79.9,73.4,67.7,99,89,69,30.07,29.99,0,0,0,0.00
2013-8-29,90.0,79.9,69.9,79.9,74.7,69.6,99,85,64,30.06,29.97,0,0,0,0.00
2013-8-30,91.2,81.6,73.1,82.9,77.0,72.7,99,87,67,30.02,29.90,0,0,0,0.00
2013-8-31,89.9,81.9,75.0,83.0,78.4,73.8,97,89,75,29.96,29.84,0,0,0,0.00
2013-9-1,90.8,83.8,77.5,85.0,80.8,76.9,98,91,77,29.93,29.85,0,0,0,0.04
2013-9-2,91.7,85.1,79.7,84.6,81.1,78.5,97,88,74,29.98,29.87,0,0,0,0.00
2013-9-3,91.2,83.2,76.3,85.4,80.4,74.7,99,92,79,29.97,29.87,0,0,0,0.06
2013-9-4,89.5,80.9,73.4,84.2,78.5,73.1,99,93,79,30.05,29.94,0,0,0,0.06
2013-9-5,88.4,80.4,75.1,83.5,78.6,74.8,99,94,79,30.11,30.01,0,0,0,0.61
2013-9-6,90.2,81.4,74.5,81.1,77.6,74.0,99,89,67,30.08,29.97,0,0,0,0.00
2013-9-7,91.0,81.7,72.9,79.8,76.4,72.3,99,85,61,30.04,29.95,0,0,0,0.00
2013-9-8,89.5,81.5,73.7,82.5,77.3,72.8,97,88,75,29.99,29.92,0,0,0,0.00
2013-9-9,90.6,81.1,73.0,81.6,76.2,72.4,99,86,66,30.03,29.94,0,0,0,0.00
2013-9-10,89.6,80.8,74.5,81.0,76.6,73.6,97,88,67,30.10,30.00,0,0,0,0.32
2013-9-11,89.3,81.4,72.9,81.1,76.5,72.3,98,86,70,30.10,30.01,0,0,0,0.00
2013-9-12,88.6,80.3,72.6,81.4,76.4,71.7,98,88,73,30.02,29.90,0,0,0,0.00
2013-9-13,91.2,81.8,73.1,82.7,77.1,72.5,98,87,65,29.92,29.80,0,0,0,0.00
2013-9-14,87.5,79.8,73.9,79.3,74.9,72.3,96,86,70,29.97,29.83,0,0,0,0.00
2013-9-15,89.8,80.2,70.6,82.3,75.7,67.5,96,87,70,30.05,29.95,0,0,0,0.00
2013-9-16,90.7,81.2,73.9,82.1,77.6,73.3,98,90,68,30.07,29.98,0,0,0,0.00
2013-9-17,89.7,80.9,72.8,82.3,77.1,72.2,98,89,72,30.06,29.95,0,0,0,0.00
2013-9-18,84.1,79.5,75.3,79.6,77.0,74.3,98,92,83,30.05,29.99,0,0,0,0.00
2013-9-19,85.4,80.6,75.9,80.7,77.7,75.0,97,91,84,30.05,29.96,0,0,0,0.01
2013-9-20,88.0,83.0,80.5,82.7,79.6,77.0,94,90,80,29.99,29.82,0,0,0,0.02
2013-9-21,82.3,78.8,73.1,80.0,77.4,72.8,99,95,90,29.82,29.70,0,0,0,0.23
2013-9-22,82.9,74.2,69.3,77.2,71.9,68.5,99,93,81,29.78,29.71,0,0,0,0.04
2013-9-23,87.2,78.5,69.3,82.4,76.1,67.8,97,92,84,29.85,29.77,0,0,0,0.00
2013-9-24,85.6,79.0,74.1,82.0,77.9,73.8,99,96,86,29.87,29.75,0,0,0,2.08
2013-9-25,88.3,77.5,71.3,81.4,75.4,71.0,99,94,71,29.81,29.74,0,0,0,0.00
2013-9-26,89.7,79.3,72.0,78.7,73.2,68.5,99,84,54,29.92,29.79,0,0,0,0.00
2013-9-27,83.0,77.2,71.8,74.4,72.7,70.6,97,87,71,30.02,29.91,0,0,0,0.00
2013-9-28,83.3,75.2,66.1,74.8,70.6,65.2,98,86,69,30.06,29.99,0,0,0,0.00
2013-9-29,84.2,75.7,69.1,75.1,70.7,67.5,97,85,66,30.03,29.94,0,0,0,0.00
2013-9-30,80.6,75.1,70.9,75.7,72.6,70.4,99,92,79,29.98,29.91,0,0,0,0.05
2013-10-1,85.2,77.9,71.1,79.3,74.7,70.8,99,90,75,30.03,29.95,0,0,0,0.00
2013-10-2,82.6,77.4,74.4,79.5,76.0,74.1,99,96,87,30.06,29.96,0,0,0,0.22
2013-10-3,86.7,79.3,74.0,82.1,77.3,73.6,99,94,84,30.03,29.94,0,0,0,0.99
2013-10-4,86.3,80.5,77.1,82.3,78.6,75.6,98,94,85,30.04,29.96,0,0,0,0.00
2013-10-5,86.5,81.6,78.8,81.6,78.7,76.3,97,91,79,30.01,29.91,0,0,0,0.00
2013-10-6,80.4,76.1,67.8,78.3,75.0,65.7,100,96,88,29.91,29.77,0,0,0,3.67
2013-10-7,77.4,68.1,61.6,65.7,61.7,58.7,94,81,57,30.00,29.85,0,0,0,0.00
2013-10-8,80.0,66.5,56.8,68.7,61.7,56.2,98,86,60,30.00,29.95,0,0,0,0.00
2013-10-9,81.9,71.7,62.8,76.7,69.7,61.9,100,93,82,30.07,29.98,0,0,0,0.00
2013-10-10,82.2,72.6,65.3,75.7,70.5,65.0,100,93,76,30.09,29.99,0,0,0,0.00
2013-10-11,83.7,75.1,67.3,77.7,72.5,67.2,100,92,76,30.05,29.96,0,0,0,0.00
2013-10-12,85.5,76.9,69.2,80.0,74.3,69.2,100,92,75,30.08,29.98,0,0,0,0.00
2013-10-13,85.5,75.9,69.1,78.8,73.6,68.5,100,93,76,30.14,30.04,0,0,0,0.00
2013-10-14,84.2,74.0,65.5,75.9,69.9,65.2,100,88,65,30.10,30.00,0,0,0,0.00
2013-10-15,82.6,74.4,67.1,76.1,71.6,66.8,100,91,78,30.05,29.95,0,0,0,0.00
2013-10-16,84.3,76.9,69.3,77.1,72.9,69.0,100,88,74,30.00,29.91,0,0,0,0.00
2013-10-17,85.4,78.0,68.7,80.5,75.1,67.2,98,91,81,29.95,29.87,0,0,0,0.02
2013-10-18,79.0,70.5,65.7,70.5,66.6,63.9,97,88,69,30.01,29.90,0,0,0,0.00
2013-10-19,67.4,64.4,60.1,67.4,63.8,60.1,100,98,92,30.00,29.88,0,0,0,0.48
2013-10-20,75.5,64.1,55.6,67.1,61.5,55.6,100,92,69,30.04,29.96,0,0,0,0.00
2013-10-21,72.6,66.5,61.1,67.9,63.9,60.2,99,92,81,30.05,29.95,0,0,0,0.00
2013-10-22,70.6,65.9,63.8,67.5,64.8,63.5,99,96,89,29.95,29.93,0,0,0,0.00
2013-10-23,75.7,64.2,54.0,61.7,56.1,50.5,97,77,44,30.11,29.95,0,0,0,0.00
2013-10-24,74.9,60.9,49.3,61.0,55.2,48.5,100,83,53,30.21,30.10,0,0,0,0.00
2013-10-25,69.9,59.2,50.2,58.3,52.1,45.0,100,79,51,30.36,30.19,0,0,0,0.00
2013-10-26,72.2,56.8,44.6,54.6,48.4,42.9,97,76,44,30.29,30.15,0,0,0,0.00
2013-10-27,75.1,62.7,49.7,66.0,58.6,48.6,99,88,62,30.15,30.07,0,0,0,0.01
2013-10-28,79.7,69.2,59.4,71.8,65.9,59.4,100,90,72,30.19,30.07,0,0,0,0.00
2013-10-29,77.9,70.4,61.1,71.9,67.5,61.1,100,91,77,30.24,30.16,0,0,0,0.00
2013-10-30,80.3,72.9,64.9,74.4,70.6,64.6,99,93,81,30.19,30.05,0,0,0,0.00
2013-10-31,79.7,76.2,74.3,76.3,74.4,72.9,99,94,88,30.05,29.81,0,0,0,0.08
2013-11-1,76.1,70.0,58.7,74.5,68.3,57.3,100,94,83,29.90,29.77,0,0,0,0.01
2013-11-2,78.9,64.1,53.0,63.4,56.6,49.7,100,79,53,30.13,29.88,0,0,0,0.00
2013-11-3,69.0,56.8,46.5,54.1,50.0,45.5,98,79,56,30.21,30.12,0,0,0,0.00
2013-11-4,71.5,62.0,49.6,64.0,57.7,48.8,97,86,73,30.24,30.14,0,0,0,0.00
2013-11-5,71.6,66.2,60.6,65.8,62.1,56.7,96,87,79,30.24,30.13,0,0,0,0.00
2013-11-6,77.1,69.5,60.5,74.0,67.5,59.1,98,94,89,30.14,30.05,0,0,0,0.00
2013-11-7,72.3,62.3,50.1,72.0,58.7,43.8,100,88,73,30.25,30.01,0,0,0,0.05
2013-11-8,68.3,53.8,44.2,47.5,43.8,40.4,92,71,44,30.30,30.16,0,0,0,0.00
2013-11-9,72.4,59.5,46.1,65.2,56.5,44.1,97,90,76,30.23,30.14,0,0,0,0.00
2013-11-10,76.4,63.9,56.7,64.9,59.2,54.3,98,86,62,30.25,30.15,0,0,0,0.00
2013-11-11,76.1,61.7,50.2,62.4,55.9,49.3,100,83,52,30.22,30.12,0,0,0,0.00
2013-11-12,74.2,58.4,43.5,60.8,52.3,33.0,100,82,59,30.41,30.15,0,0,0,0.00
2013-11-13,58.1,44.6,35.4,35.7,31.7,26.7,83,62,38,30.49,30.38,0,0,0,0.00
2013-11-14,64.4,53.1,37.9,55.0,46.0,33.7,85,77,65,30.39,30.12,0,0,0,0.00
2013-11-15,70.5,63.7,58.8,69.9,62.4,54.1,100,96,82,30.12,29.97,0,0,0,0.12
2013-11-16,74.3,68.1,63.6,72.8,67.6,63.6,100,99,94,30.08,29.96,0,0,0,0.01
2013-11-17,77.3,71.7,68.2,75.8,71.4,67.9,100,99,94,29.99,29.91,0,0,0,0.13
2013-11-18,71.9,65.4,55.0,71.9,64.3,50.0,100,96,77,30.06,29.93,0,0,0,3.18
2013-11-19,65.9,54.4,47.5,53.6,48.5,43.7,98,81,55,30.13,30.01,0,0,0,0.00
2013-11-20,69.6,57.5,43.2,64.6,54.8,41.9,100,91,82,30.12,30.03,0,0,0,0.00
2013-11-21,66.9,63.2,57.6,65.8,62.5,57.3,100,98,94,30.21,30.12,0,0,0,0.00
2013-11-22,74.1,67.8,63.6,72.3,67.4,63.6,100,99,92,30.20,30.12,0,0,0,0.01
2013-11-23,66.2,61.1,51.2,66.2,60.3,46.2,100,97,83,30.26,30.14,0,0,0,0.00
2013-11-24,57.1,48.4,42.2,46.1,38.4,35.2,85,69,46,30.34,30.25,0,0,0,0.00
2013-11-25,66.4,52.9,41.1,66.4,50.6,35.2,100,92,76,30.28,29.86,0,0,0,0.34
2013-11-26,67.6,53.3,44.5,67.6,53.3,44.5,100,100,99,29.94,29.68,0,0,0,0.93
2013-11-27,51.4,42.5,34.4,44.4,38.9,32.5,100,88,65,30.39,29.94,0,0,0,0.06
2013-11-28,50.9,38.8,29.6,38.9,33.9,28.3,99,84,54,30.48,30.36,0,0,0,0.00
2013-11-29,61.8,43.1,31.3,45.4,37.5,30.8,100,84,43,30.52,30.40,0,0,0,0.00
2013-11-30,68.4,49.9,36.0,57.7,46.3,35.3,100,89,67,30.42,30.25,0,0,0,0.00
2013-12-1,70.3,54.4,43.4,60.7,52.2,43.4,100,93,69,30.27,30.00,0,0,0,0.00
2013-12-2,67.6,59.7,49.6,63.0,57.1,49.6,100,92,55,30.00,29.79,0,0,0,0.00
2013-12-3,70.1,64.4,60.3,68.5,64.1,60.3,100,99,93,29.84,29.75,0,0,0,0.00
2013-12-4,73.7,68.0,61.7,73.7,68.0,61.7,100,100,98,29.96,29.83,0,0,0,0.00
2013-12-5,74.5,70.2,67.4,74.5,70.2,67.4,100,100,99,30.03,29.94,0,0,0,0.02
2013-12-6,76.3,68.0,53.2,76.0,68.0,53.2,100,100,97,30.14,29.95,0,0,0,0.12
2013-12-7,53.1,45.3,43.4,53.1,45.3,43.4,100,100,100,30.27,30.13,0,0,0,0.14
2013-12-8,70.5,57.3,44.0,70.5,57.3,44.0,100,100,100,30.20,30.01,0,0,0,0.00
2013-12-9,73.7,65.1,58.1,69.2,64.2,58.1,100,97,83,30.10,30.02,0,0,0,0.00
2013-12-10,62.0,48.3,39.7,62.0,47.0,39.2,100,95,81,30.34,30.01,0,0,0,0.04
2013-12-11,64.4,50.0,36.6,53.3,45.0,36.6,100,84,64,30.38,30.28,0,0,0,0.00
2013-12-12,59.6,48.9,37.0,45.5,39.1,33.2,86,69,47,30.47,30.36,0,0,0,0.01
2013-12-13,60.0,49.3,34.7,55.5,46.0,32.1,97,88,80,30.36,30.01,0,0,0,0.00
2013-12-14,70.3,62.3,52.3,69.1,62.1,52.3,100,99,94,29.99,29.82,0,0,0,0.07
2013-12-15,52.5,45.6,36.5,52.0,42.6,36.5,100,90,74,30.29,29.98,0,0,0,0.00
2013-12-16,60.2,43.9,32.5,49.5,40.8,32.5,100,90,51,30.34,30.24,0,0,0,0.00
2013-12-17,62.2,48.3,36.4,53.0,44.6,36.4,100,89,62,30.33,30.22,0,0,0,0.00
2013-12-18,64.0,50.3,39.4,52.2,45.8,39.4,100,87,54,30.36,30.23,0,0,0,0.00
2013-12-19,69.6,58.3,44.3,63.9,56.5,44.3,100,94,81,30.23,30.05,0,0,0,0.00
2013-12-20,72.6,67.7,63.6,71.4,67.4,63.6,100,99,95,30.10,29.97,0,0,0,0.00
2013-12-21,73.3,69.5,66.8,73.3,69.5,66.8,100,100,100,29.97,29.82,0,0,0,0.00
2013-12-22,68.3,60.1,54.1,68.3,60.1,54.1,100,100,100,30.12,29.83,0,0,0,2.63
2013-12-23,55.3,49.0,39.0,55.3,48.2,37.7,100,97,91,30.41,30.08,0,0,0,0.01
2013-12-24,55.0,41.4,33.5,43.8,37.0,32.7,99,86,60,30.48,30.35,0,0,0,0.00
2013-12-25,49.2,40.8,31.9,41.1,35.9,30.1,98,83,65,30.39,30.28,0,0,0,0.00
2013-12-26,56.7,45.8,37.8,46.4,40.7,35.7,94,83,64,30.35,30.25,0,0,0,0.00
2013-12-27,62.2,51.7,42.6,46.7,42.6,39.7,91,72,54,30.37,30.25,0,0,0,0.00
2013-12-28,53.3,48.7,47.0,49.8,48.2,44.5,100,98,72,30.24,29.92,0,0,0,2.62
2013-12-29,60.6,50.6,44.4,57.0,49.9,44.4,100,98,84,30.11,29.91,0,0,0,0.14
2013-12-30,56.9,49.8,42.2,54.8,49.3,42.2,100,98,85,30.30,30.09,0,0,0,0.01
2013-12-31,51.3,46.4,43.6,51.3,46.1,43.6,100,99,92,30.41,30.27,0,0,0,0.01
2014-1-1,61.6,54.2,43.9,60.7,53.9,43.9,100,99,94,30.32,30.03,0,0,0,0.03
2014-1-2,59.1,52.7,37.0,59.1,50.0,33.0,100,91,72,30.31,29.89,0,0,0,0.01